sensor_id;sensor_type;location;lat;lon;timestamp;P1;durP1;ratioP1;P2;durP2;ratioP2
60306;SDS011;46155;52.364;6.580;2023-04-03T03:01:37;11.97;;;9.43;;
60306;SDS011;46155;52.364;6.580;2023-04-03T03:04:02;11.23;;;9.67;;
60306;SDS011;46155;52.364;6.580;2023-04-03T03:06:28;14.40;;;9.80;;
60306;SDS011;46155;52.364;6.580;2023-04-03T03:08:53;10.33;;;9.00;;
60306;SDS011;46155;52.364;6.580;2023-04-03T03:11:18;18.00;;;10.27;;
60306;SDS011;46155;52.364;6.580;2023-04-03T03:13:44;16.00;;;9.10;;
60306;SDS011;46155;52.364;6.580;2023-04-03T03:16:10;9.23;;;8.33;;
60306;SDS011;46155;52.364;6.580;2023-04-03T03:18:35;8.33;;;7.53;;
60306;SDS011;46155;52.364;6.580;2023-04-03T03:21:01;8.60;;;7.90;;
60306;SDS011;46155;52.364;6.580;2023-04-03T03:23:28;9.00;;;8.23;;
60306;SDS011;46155;52.364;6.580;2023-04-03T03:25:58;8.17;;;7.57;;
60306;SDS011;46155;52.364;6.580;2023-04-03T03:28:25;11.67;;;9.00;;
60306;SDS011;46155;52.364;6.580;2023-04-03T03:30:51;9.30;;;8.30;;
60306;SDS011;46155;52.364;6.580;2023-04-03T03:33:17;7.37;;;6.87;;
60306;SDS011;46155;52.364;6.580;2023-04-03T03:35:43;20.43;;;7.43;;
60306;SDS011;46155;52.364;6.580;2023-04-03T03:38:09;8.87;;;8.10;;
60306;SDS011;46155;52.364;6.580;2023-04-03T03:40:34;9.80;;;8.80;;
60306;SDS011;46155;52.364;6.580;2023-04-03T03:43:00;10.93;;;8.60;;
60306;SDS011;46155;52.364;6.580;2023-04-03T03:45:26;6.77;;;6.23;;
60306;SDS011;46155;52.364;6.580;2023-04-03T03:47:51;7.63;;;7.00;;
60306;SDS011;46155;52.364;6.580;2023-04-03T03:50:17;8.57;;;7.83;;
60306;SDS011;46155;52.364;6.580;2023-04-03T03:52:42;10.30;;;7.03;;
60306;SDS011;46155;52.364;6.580;2023-04-03T03:55:07;7.17;;;6.57;;
60306;SDS011;46155;52.364;6.580;2023-04-03T03:57:33;16.53;;;8.03;;
60306;SDS011;46155;52.364;6.580;2023-04-03T03:59:58;9.43;;;7.90;;
60306;SDS011;46155;52.364;6.580;2023-04-03T04:02:23;10.00;;;8.37;;
60306;SDS011;46155;52.364;6.580;2023-04-03T04:04:49;10.50;;;8.33;;
60306;SDS011;46155;52.364;6.580;2023-04-03T04:07:14;8.83;;;8.10;;
60306;SDS011;46155;52.364;6.580;2023-04-03T04:09:40;8.83;;;7.93;;
60306;SDS011;46155;52.364;6.580;2023-04-03T04:12:06;9.77;;;8.77;;
60306;SDS011;46155;52.364;6.580;2023-04-03T04:14:31;18.37;;;8.73;;
60306;SDS011;46155;52.364;6.580;2023-04-03T04:16:56;9.07;;;8.27;;
60306;SDS011;46155;52.364;6.580;2023-04-03T04:19:22;8.70;;;8.10;;
60306;SDS011;46155;52.364;6.580;2023-04-03T04:21:47;10.00;;;8.97;;
60306;SDS011;46155;52.364;6.580;2023-04-03T04:24:12;11.00;;;8.73;;
60306;SDS011;46155;52.364;6.580;2023-04-03T04:26:38;8.47;;;7.73;;
60306;SDS011;46155;52.364;6.580;2023-04-03T04:29:04;8.60;;;7.93;;
60306;SDS011;46155;52.364;6.580;2023-04-03T04:31:29;10.60;;;9.33;;
60306;SDS011;46155;52.364;6.580;2023-04-03T04:33:54;9.07;;;8.37;;
60306;SDS011;46155;52.364;6.580;2023-04-03T04:36:20;9.83;;;9.03;;
60306;SDS011;46155;52.364;6.580;2023-04-03T04:38:45;10.20;;;9.30;;
60306;SDS011;46155;52.364;6.580;2023-04-03T04:41:10;9.83;;;8.83;;
60306;SDS011;46155;52.364;6.580;2023-04-03T04:43:36;9.33;;;8.50;;
60306;SDS011;46155;52.364;6.580;2023-04-03T04:46:05;14.67;;;8.87;;
60306;SDS011;46155;52.364;6.580;2023-04-03T04:48:32;16.00;;;9.67;;
60306;SDS011;46155;52.364;6.580;2023-04-03T04:50:58;10.93;;;10.07;;
60306;SDS011;46155;52.364;6.580;2023-04-03T04:53:24;9.30;;;8.60;;
60306;SDS011;46155;52.364;6.580;2023-04-03T04:55:49;10.50;;;9.47;;
60306;SDS011;46155;52.364;6.580;2023-04-03T04:58:15;9.87;;;9.20;;
60306;SDS011;46155;52.364;6.580;2023-04-03T05:00:41;10.23;;;9.50;;
60306;SDS011;46155;52.364;6.580;2023-04-03T05:03:06;14.63;;;9.70;;
60306;SDS011;46155;52.364;6.580;2023-04-03T05:05:31;10.67;;;8.13;;
60306;SDS011;46155;52.364;6.580;2023-04-03T05:07:57;9.57;;;7.77;;
60306;SDS011;46155;52.364;6.580;2023-04-03T05:10:22;14.77;;;8.33;;
60306;SDS011;46155;52.364;6.580;2023-04-03T05:12:47;10.37;;;8.13;;
60306;SDS011;46155;52.364;6.580;2023-04-03T05:15:13;7.43;;;5.73;;
60306;SDS011;46155;52.364;6.580;2023-04-03T05:17:38;8.90;;;7.67;;
60306;SDS011;46155;52.364;6.580;2023-04-03T05:20:03;12.67;;;8.03;;
60306;SDS011;46155;52.364;6.580;2023-04-03T05:22:29;7.87;;;6.90;;
60306;SDS011;46155;52.364;6.580;2023-04-03T05:24:55;19.87;;;7.40;;
60306;SDS011;46155;52.364;6.580;2023-04-03T05:27:21;7.90;;;6.10;;
60306;SDS011;46155;52.364;6.580;2023-04-03T05:29:48;10.30;;;6.27;;
60306;SDS011;46155;52.364;6.580;2023-04-03T05:32:13;10.67;;;6.80;;
60306;SDS011;46155;52.364;6.580;2023-04-03T05:34:38;12.00;;;6.90;;
60306;SDS011;46155;52.364;6.580;2023-04-03T05:37:04;12.43;;;5.80;;
60306;SDS011;46155;52.364;6.580;2023-04-03T05:39:30;6.33;;;5.90;;
60306;SDS011;46155;52.364;6.580;2023-04-03T05:41:56;8.77;;;6.97;;
60306;SDS011;46155;52.364;6.580;2023-04-03T05:44:21;6.70;;;6.03;;
60306;SDS011;46155;52.364;6.580;2023-04-03T05:46:47;6.23;;;5.30;;
60306;SDS011;46155;52.364;6.580;2023-04-03T05:49:12;6.73;;;6.07;;
60306;SDS011;46155;52.364;6.580;2023-04-03T05:51:38;10.83;;;7.40;;
60306;SDS011;46155;52.364;6.580;2023-04-03T05:54:12;13.67;;;6.67;;
60306;SDS011;46155;52.364;6.580;2023-04-03T05:56:41;11.73;;;7.20;;
60306;SDS011;46155;52.364;6.580;2023-04-03T05:59:07;7.57;;;6.70;;
60306;SDS011;46155;52.364;6.580;2023-04-03T06:01:32;10.03;;;6.43;;
60306;SDS011;46155;52.364;6.580;2023-04-03T06:03:59;7.17;;;5.90;;
60306;SDS011;46155;52.364;6.580;2023-04-03T06:06:24;7.50;;;5.03;;
60306;SDS011;46155;52.364;6.580;2023-04-03T06:08:50;8.10;;;4.67;;
60306;SDS011;46155;52.364;6.580;2023-04-03T06:11:16;5.27;;;4.40;;
60306;SDS011;46155;52.364;6.580;2023-04-03T06:13:41;6.37;;;4.80;;
60306;SDS011;46155;52.364;6.580;2023-04-03T06:16:08;8.43;;;4.87;;
60306;SDS011;46155;52.364;6.580;2023-04-03T06:18:36;5.50;;;4.70;;
60306;SDS011;46155;52.364;6.580;2023-04-03T06:21:02;6.57;;;5.70;;
60306;SDS011;46155;52.364;6.580;2023-04-03T06:23:28;5.30;;;4.60;;
60306;SDS011;46155;52.364;6.580;2023-04-03T06:25:53;6.43;;;5.17;;
60306;SDS011;46155;52.364;6.580;2023-04-03T06:28:19;3.73;;;3.37;;
60306;SDS011;46155;52.364;6.580;2023-04-03T06:30:45;4.13;;;3.73;;
60306;SDS011;46155;52.364;6.580;2023-04-03T06:33:10;4.03;;;3.70;;
60306;SDS011;46155;52.364;6.580;2023-04-03T06:35:36;3.50;;;3.30;;
60306;SDS011;46155;52.364;6.580;2023-04-03T06:38:03;6.97;;;3.63;;
60306;SDS011;46155;52.364;6.580;2023-04-03T06:40:34;3.97;;;3.10;;
60306;SDS011;46155;52.364;6.580;2023-04-03T06:42:59;3.77;;;3.43;;
60306;SDS011;46155;52.364;6.580;2023-04-03T06:45:25;5.07;;;4.03;;
60306;SDS011;46155;52.364;6.580;2023-04-03T06:47:50;6.00;;;3.70;;
60306;SDS011;46155;52.364;6.580;2023-04-03T06:50:16;9.20;;;3.97;;
60306;SDS011;46155;52.364;6.580;2023-04-03T06:52:41;4.83;;;3.60;;
60306;SDS011;46155;52.364;6.580;2023-04-03T06:55:07;6.77;;;3.67;;
60306;SDS011;46155;52.364;6.580;2023-04-03T06:57:34;4.33;;;4.00;;
60306;SDS011;46155;52.364;6.580;2023-04-03T07:00:00;4.93;;;3.93;;
60306;SDS011;46155;52.364;6.580;2023-04-03T07:02:25;6.33;;;3.57;;
60306;SDS011;46155;52.364;6.580;2023-04-03T07:04:51;4.60;;;3.37;;
60306;SDS011;46155;52.364;6.580;2023-04-03T07:07:16;5.17;;;3.63;;
60306;SDS011;46155;52.364;6.580;2023-04-03T07:09:42;7.30;;;3.83;;
60306;SDS011;46155;52.364;6.580;2023-04-03T07:12:08;4.13;;;3.80;;
60306;SDS011;46155;52.364;6.580;2023-04-03T07:14:33;7.10;;;4.57;;
60306;SDS011;46155;52.364;6.580;2023-04-03T07:16:58;8.40;;;4.43;;
60306;SDS011;46155;52.364;6.580;2023-04-03T07:19:24;10.10;;;4.00;;
60306;SDS011;46155;52.364;6.580;2023-04-03T07:21:52;3.97;;;3.67;;
60306;SDS011;46155;52.364;6.580;2023-04-03T07:24:17;11.73;;;3.33;;
60306;SDS011;46155;52.364;6.580;2023-04-03T07:26:42;7.40;;;3.90;;
60306;SDS011;46155;52.364;6.580;2023-04-03T07:29:10;3.43;;;3.13;;
60306;SDS011;46155;52.364;6.580;2023-04-03T07:31:35;6.63;;;3.33;;
60306;SDS011;46155;52.364;6.580;2023-04-03T07:34:01;7.27;;;3.17;;
60306;SDS011;46155;52.364;6.580;2023-04-03T07:36:27;8.10;;;3.97;;
60306;SDS011;46155;52.364;6.580;2023-04-03T07:38:52;7.73;;;3.37;;
60306;SDS011;46155;52.364;6.580;2023-04-03T07:41:18;5.40;;;3.73;;
60306;SDS011;46155;52.364;6.580;2023-04-03T07:43:45;7.77;;;3.70;;
60306;SDS011;46155;52.364;6.580;2023-04-03T07:46:11;5.90;;;3.17;;
60306;SDS011;46155;52.364;6.580;2023-04-03T07:48:37;3.63;;;3.07;;
60306;SDS011;46155;52.364;6.580;2023-04-03T07:51:04;3.97;;;3.67;;
60306;SDS011;46155;52.364;6.580;2023-04-03T07:53:30;6.13;;;3.60;;
60306;SDS011;46155;52.364;6.580;2023-04-03T07:55:57;11.60;;;3.83;;
60306;SDS011;46155;52.364;6.580;2023-04-03T07:58:23;8.97;;;3.37;;
60306;SDS011;46155;52.364;6.580;2023-04-03T08:00:49;4.43;;;3.50;;
60306;SDS011;46155;52.364;6.580;2023-04-03T08:03:15;3.00;;;2.80;;
60306;SDS011;46155;52.364;6.580;2023-04-03T08:05:44;3.40;;;3.10;;
60306;SDS011;46155;52.364;6.580;2023-04-03T08:08:12;3.13;;;2.83;;
60306;SDS011;46155;52.364;6.580;2023-04-03T08:10:40;3.43;;;3.13;;
60306;SDS011;46155;52.364;6.580;2023-04-03T08:13:06;3.50;;;3.30;;
60306;SDS011;46155;52.364;6.580;2023-04-03T08:15:32;3.47;;;3.17;;
60306;SDS011;46155;52.364;6.580;2023-04-03T08:17:58;3.97;;;3.57;;
60306;SDS011;46155;52.364;6.580;2023-04-03T08:20:24;3.63;;;3.33;;
60306;SDS011;46155;52.364;6.580;2023-04-03T08:22:50;5.97;;;2.70;;
60306;SDS011;46155;52.364;6.580;2023-04-03T08:25:15;6.97;;;3.10;;
60306;SDS011;46155;52.364;6.580;2023-04-03T08:27:42;3.10;;;2.90;;
60306;SDS011;46155;52.364;6.580;2023-04-03T08:30:07;3.60;;;3.33;;
60306;SDS011;46155;52.364;6.580;2023-04-03T08:32:34;3.53;;;3.10;;
60306;SDS011;46155;52.364;6.580;2023-04-03T08:35:00;3.63;;;3.20;;
60306;SDS011;46155;52.364;6.580;2023-04-03T08:37:26;3.03;;;2.83;;
60306;SDS011;46155;52.364;6.580;2023-04-03T08:39:51;3.97;;;3.57;;
60306;SDS011;46155;52.364;6.580;2023-04-03T08:44:56;3.60;;;3.40;;
60306;SDS011;46155;52.364;6.580;2023-04-03T08:47:35;3.30;;;3.10;;
60306;SDS011;46155;52.364;6.580;2023-04-03T08:50:06;4.10;;;3.67;;
60306;SDS011;46155;52.364;6.580;2023-04-03T08:52:45;3.87;;;3.57;;
60306;SDS011;46155;52.364;6.580;2023-04-03T08:58:05;3.07;;;2.97;;
60306;SDS011;46155;52.364;6.580;2023-04-03T09:00:46;3.33;;;3.17;;
60306;SDS011;46155;52.364;6.580;2023-04-03T09:03:17;3.50;;;2.90;;
60306;SDS011;46155;52.364;6.580;2023-04-03T09:05:47;3.10;;;2.83;;
60306;SDS011;46155;52.364;6.580;2023-04-03T09:10:52;3.87;;;3.50;;
60306;SDS011;46155;52.364;6.580;2023-04-03T09:16:44;2.67;;;2.57;;
60306;SDS011;46155;52.364;6.580;2023-04-03T09:24:38;3.10;;;2.90;;
60306;SDS011;46155;52.364;6.580;2023-04-03T09:27:04;4.30;;;3.40;;
60306;SDS011;46155;52.364;6.580;2023-04-03T09:29:32;4.07;;;3.10;;
60306;SDS011;46155;52.364;6.580;2023-04-03T09:32:11;3.83;;;3.47;;
60306;SDS011;46155;52.364;6.580;2023-04-03T09:34:45;3.97;;;3.60;;
60306;SDS011;46155;52.364;6.580;2023-04-03T09:37:12;3.03;;;2.93;;
60306;SDS011;46155;52.364;6.580;2023-04-03T09:40:00;3.40;;;3.20;;
60306;SDS011;46155;52.364;6.580;2023-04-03T09:42:25;3.43;;;3.17;;
60306;SDS011;46155;52.364;6.580;2023-04-03T09:45:02;3.60;;;3.30;;
60306;SDS011;46155;52.364;6.580;2023-04-03T09:47:31;3.20;;;3.00;;
60306;SDS011;46155;52.364;6.580;2023-04-03T09:50:10;3.83;;;3.53;;
60306;SDS011;46155;52.364;6.580;2023-04-03T09:52:45;4.23;;;3.33;;
60306;SDS011;46155;52.364;6.580;2023-04-03T09:55:17;3.57;;;3.30;;
60306;SDS011;46155;52.364;6.580;2023-04-03T09:57:58;3.47;;;3.17;;
60306;SDS011;46155;52.364;6.580;2023-04-03T10:00:33;3.10;;;3.00;;
60306;SDS011;46155;52.364;6.580;2023-04-03T10:03:01;4.20;;;3.80;;
60306;SDS011;46155;52.364;6.580;2023-04-03T10:05:34;4.73;;;3.30;;
60306;SDS011;46155;52.364;6.580;2023-04-03T10:10:38;3.10;;;2.90;;
60306;SDS011;46155;52.364;6.580;2023-04-03T10:13:12;3.13;;;2.80;;
60306;SDS011;46155;52.364;6.580;2023-04-03T10:15:45;4.20;;;3.80;;
60306;SDS011;46155;52.364;6.580;2023-04-03T10:18:44;3.10;;;3.00;;
60306;SDS011;46155;52.364;6.580;2023-04-03T10:24:36;3.70;;;3.50;;
60306;SDS011;46155;52.364;6.580;2023-04-03T10:27:22;4.10;;;3.80;;
60306;SDS011;46155;52.364;6.580;2023-04-03T10:30:14;4.23;;;3.83;;
60306;SDS011;46155;52.364;6.580;2023-04-03T10:35:57;4.07;;;3.87;;
60306;SDS011;46155;52.364;6.580;2023-04-03T10:41:44;4.93;;;3.87;;
60306;SDS011;46155;52.364;6.580;2023-04-03T10:44:14;3.90;;;3.57;;
60306;SDS011;46155;52.364;6.580;2023-04-03T10:46:43;3.50;;;3.27;;
60306;SDS011;46155;52.364;6.580;2023-04-03T10:52:11;3.70;;;3.50;;
60306;SDS011;46155;52.364;6.580;2023-04-03T10:54:45;4.03;;;3.27;;
60306;SDS011;46155;52.364;6.580;2023-04-03T10:57:19;4.03;;;3.67;;
60306;SDS011;46155;52.364;6.580;2023-04-03T11:02:19;3.67;;;3.47;;
60306;SDS011;46155;52.364;6.580;2023-04-03T11:04:50;3.60;;;3.40;;
60306;SDS011;46155;52.364;6.580;2023-04-03T11:07:23;3.93;;;3.50;;
60306;SDS011;46155;52.364;6.580;2023-04-03T11:09:52;8.30;;;4.10;;
60306;SDS011;46155;52.364;6.580;2023-04-03T11:12:31;8.80;;;3.73;;
60306;SDS011;46155;52.364;6.580;2023-04-03T11:14:58;5.20;;;3.40;;
60306;SDS011;46155;52.364;6.580;2023-04-03T11:17:33;3.67;;;3.37;;
60306;SDS011;46155;52.364;6.580;2023-04-03T11:20:08;4.17;;;3.87;;
60306;SDS011;46155;52.364;6.580;2023-04-03T11:22:43;4.33;;;3.57;;
60306;SDS011;46155;52.364;6.580;2023-04-03T11:30:17;5.17;;;3.33;;
60306;SDS011;46155;52.364;6.580;2023-04-03T11:33:01;3.77;;;3.53;;
60306;SDS011;46155;52.364;6.580;2023-04-03T11:35:29;3.93;;;3.70;;
60306;SDS011;46155;52.364;6.580;2023-04-03T11:37:56;4.00;;;3.80;;
60306;SDS011;46155;52.364;6.580;2023-04-03T11:40:26;3.93;;;3.67;;
60306;SDS011;46155;52.364;6.580;2023-04-03T11:43:07;4.60;;;3.67;;
60306;SDS011;46155;52.364;6.580;2023-04-03T11:53:29;5.77;;;3.83;;
60306;SDS011;46155;52.364;6.580;2023-04-03T12:01:51;6.70;;;4.07;;
60306;SDS011;46155;52.364;6.580;2023-04-03T12:04:18;4.63;;;4.20;;
60306;SDS011;46155;52.364;6.580;2023-04-03T12:12:36;4.00;;;3.80;;
60306;SDS011;46155;52.364;6.580;2023-04-03T12:15:18;5.33;;;3.47;;
60306;SDS011;46155;52.364;6.580;2023-04-03T12:17:46;4.33;;;3.60;;
60306;SDS011;46155;52.364;6.580;2023-04-03T12:23:24;3.77;;;3.47;;
60306;SDS011;46155;52.364;6.580;2023-04-03T12:25:54;4.30;;;3.90;;
60306;SDS011;46155;52.364;6.580;2023-04-03T12:28:28;5.00;;;3.70;;
60306;SDS011;46155;52.364;6.580;2023-04-03T12:30:53;4.07;;;3.67;;
60306;SDS011;46155;52.364;6.580;2023-04-03T12:36:09;3.83;;;3.57;;
60306;SDS011;46155;52.364;6.580;2023-04-03T12:39:06;3.93;;;3.60;;
60306;SDS011;46155;52.364;6.580;2023-04-03T12:41:46;4.17;;;3.87;;
60306;SDS011;46155;52.364;6.580;2023-04-03T12:44:40;3.97;;;3.67;;
60306;SDS011;46155;52.364;6.580;2023-04-03T12:47:36;4.07;;;3.80;;
60306;SDS011;46155;52.364;6.580;2023-04-03T12:50:04;4.40;;;4.10;;
60306;SDS011;46155;52.364;6.580;2023-04-03T12:52:45;4.07;;;3.67;;
60306;SDS011;46155;52.364;6.580;2023-04-03T12:55:15;4.23;;;3.93;;
60306;SDS011;46155;52.364;6.580;2023-04-03T12:57:42;4.03;;;3.73;;
60306;SDS011;46155;52.364;6.580;2023-04-03T13:02:47;8.50;;;4.30;;
60306;SDS011;46155;52.364;6.580;2023-04-03T13:05:15;5.60;;;4.07;;
60306;SDS011;46155;52.364;6.580;2023-04-03T13:07:43;7.17;;;3.70;;
60306;SDS011;46155;52.364;6.580;2023-04-03T13:12:35;4.47;;;4.17;;
60306;SDS011;46155;52.364;6.580;2023-04-03T13:15:15;5.77;;;3.83;;
60306;SDS011;46155;52.364;6.580;2023-04-03T13:17:44;4.20;;;3.90;;
60306;SDS011;46155;52.364;6.580;2023-04-03T13:20:11;4.73;;;4.13;;
60306;SDS011;46155;52.364;6.580;2023-04-03T13:22:49;6.60;;;3.93;;
60306;SDS011;46155;52.364;6.580;2023-04-03T13:25:19;5.40;;;4.40;;
60306;SDS011;46155;52.364;6.580;2023-04-03T13:27:46;4.53;;;3.60;;
60306;SDS011;46155;52.364;6.580;2023-04-03T13:30:19;4.50;;;3.80;;
60306;SDS011;46155;52.364;6.580;2023-04-03T13:32:48;4.10;;;3.70;;
60306;SDS011;46155;52.364;6.580;2023-04-03T13:38:00;3.90;;;3.63;;
60306;SDS011;46155;52.364;6.580;2023-04-03T13:40:28;5.03;;;4.23;;
60306;SDS011;46155;52.364;6.580;2023-04-03T13:43:00;4.33;;;3.90;;
60306;SDS011;46155;52.364;6.580;2023-04-03T13:45:29;4.47;;;4.10;;
60306;SDS011;46155;52.364;6.580;2023-04-03T13:50:53;4.53;;;4.10;;
60306;SDS011;46155;52.364;6.580;2023-04-03T13:53:23;6.17;;;4.10;;
60306;SDS011;46155;52.364;6.580;2023-04-03T13:55:54;3.77;;;3.57;;
60306;SDS011;46155;52.364;6.580;2023-04-03T14:06:14;3.93;;;3.70;;
60306;SDS011;46155;52.364;6.580;2023-04-03T14:08:41;4.30;;;3.47;;
60306;SDS011;46155;52.364;6.580;2023-04-03T14:11:09;4.43;;;4.00;;
60306;SDS011;46155;52.364;6.580;2023-04-03T14:13:39;4.00;;;3.67;;
60306;SDS011;46155;52.364;6.580;2023-04-03T14:16:04;4.80;;;4.30;;
60306;SDS011;46155;52.364;6.580;2023-04-03T14:18:30;4.63;;;4.00;;
60306;SDS011;46155;52.364;6.580;2023-04-03T14:20:55;4.27;;;3.70;;
60306;SDS011;46155;52.364;6.580;2023-04-03T14:23:20;4.20;;;3.80;;
60306;SDS011;46155;52.364;6.580;2023-04-03T14:25:46;7.73;;;3.90;;
60306;SDS011;46155;52.364;6.580;2023-04-03T14:28:15;5.67;;;3.50;;
60306;SDS011;46155;52.364;6.580;2023-04-03T14:30:43;3.90;;;3.60;;
60306;SDS011;46155;52.364;6.580;2023-04-03T14:33:14;3.80;;;3.50;;
60306;SDS011;46155;52.364;6.580;2023-04-03T14:35:41;4.53;;;4.13;;
60306;SDS011;46155;52.364;6.580;2023-04-03T14:38:24;4.40;;;4.10;;
60306;SDS011;46155;52.364;6.580;2023-04-03T14:40:51;6.60;;;3.63;;
60306;SDS011;46155;52.364;6.580;2023-04-03T14:43:17;7.57;;;4.13;;
60306;SDS011;46155;52.364;6.580;2023-04-03T14:45:43;3.87;;;3.50;;
60306;SDS011;46155;52.364;6.580;2023-04-03T14:48:10;6.83;;;4.00;;
60306;SDS011;46155;52.364;6.580;2023-04-03T14:50:43;7.60;;;4.00;;
60306;SDS011;46155;52.364;6.580;2023-04-03T14:53:09;5.90;;;4.33;;
60306;SDS011;46155;52.364;6.580;2023-04-03T14:55:36;5.70;;;4.23;;
60306;SDS011;46155;52.364;6.580;2023-04-03T14:58:02;7.00;;;3.67;;
60306;SDS011;46155;52.364;6.580;2023-04-03T15:00:27;6.10;;;3.53;;
60306;SDS011;46155;52.364;6.580;2023-04-03T15:02:52;7.20;;;3.43;;
60306;SDS011;46155;52.364;6.580;2023-04-03T15:05:18;9.87;;;4.23;;
60306;SDS011;46155;52.364;6.580;2023-04-03T15:07:48;3.50;;;3.30;;
60306;SDS011;46155;52.364;6.580;2023-04-03T15:12:45;10.30;;;3.93;;
60306;SDS011;46155;52.364;6.580;2023-04-03T15:15:12;6.57;;;3.47;;
60306;SDS011;46155;52.364;6.580;2023-04-03T15:17:39;5.27;;;3.50;;
60306;SDS011;46155;52.364;6.580;2023-04-03T15:20:10;5.33;;;3.40;;
60306;SDS011;46155;52.364;6.580;2023-04-03T15:22:38;3.83;;;3.33;;
60306;SDS011;46155;52.364;6.580;2023-04-03T15:25:04;3.93;;;3.73;;
60306;SDS011;46155;52.364;6.580;2023-04-03T15:27:29;3.60;;;3.30;;
60306;SDS011;46155;52.364;6.580;2023-04-03T15:29:55;3.93;;;3.53;;
60306;SDS011;46155;52.364;6.580;2023-04-03T15:32:20;5.27;;;3.40;;
60306;SDS011;46155;52.364;6.580;2023-04-03T15:34:46;7.63;;;2.90;;
60306;SDS011;46155;52.364;6.580;2023-04-03T15:37:11;5.33;;;3.67;;
60306;SDS011;46155;52.364;6.580;2023-04-03T15:39:36;3.90;;;3.50;;
60306;SDS011;46155;52.364;6.580;2023-04-03T15:42:02;3.97;;;3.37;;
60306;SDS011;46155;52.364;6.580;2023-04-03T15:44:33;3.70;;;3.40;;
60306;SDS011;46155;52.364;6.580;2023-04-03T15:46:59;6.50;;;4.03;;
60306;SDS011;46155;52.364;6.580;2023-04-03T15:49:26;3.73;;;3.53;;
60306;SDS011;46155;52.364;6.580;2023-04-03T15:51:52;4.10;;;3.80;;
60306;SDS011;46155;52.364;6.580;2023-04-03T15:54:17;4.00;;;3.60;;
60306;SDS011;46155;52.364;6.580;2023-04-03T15:56:43;4.83;;;3.50;;
60306;SDS011;46155;52.364;6.580;2023-04-03T15:59:08;3.60;;;3.33;;
60306;SDS011;46155;52.364;6.580;2023-04-03T16:01:34;3.90;;;3.33;;
60306;SDS011;46155;52.364;6.580;2023-04-03T16:04:00;4.23;;;3.43;;
60306;SDS011;46155;52.364;6.580;2023-04-03T16:06:25;3.20;;;3.10;;
60306;SDS011;46155;52.364;6.580;2023-04-03T16:08:51;4.50;;;3.27;;
60306;SDS011;46155;52.364;6.580;2023-04-03T16:11:16;3.70;;;3.40;;
60306;SDS011;46155;52.364;6.580;2023-04-03T16:13:42;3.57;;;3.17;;
60306;SDS011;46155;52.364;6.580;2023-04-03T16:16:07;3.20;;;3.00;;
60306;SDS011;46155;52.364;6.580;2023-04-03T16:18:33;4.23;;;3.80;;
60306;SDS011;46155;52.364;6.580;2023-04-03T16:21:00;3.17;;;3.07;;
60306;SDS011;46155;52.364;6.580;2023-04-03T16:23:25;3.70;;;3.40;;
60306;SDS011;46155;52.364;6.580;2023-04-03T16:25:51;4.13;;;3.30;;
60306;SDS011;46155;52.364;6.580;2023-04-03T16:28:16;3.47;;;3.07;;
60306;SDS011;46155;52.364;6.580;2023-04-03T16:30:43;3.20;;;3.00;;
60306;SDS011;46155;52.364;6.580;2023-04-03T16:33:10;5.43;;;3.40;;
60306;SDS011;46155;52.364;6.580;2023-04-03T16:35:37;6.63;;;3.27;;
60306;SDS011;46155;52.364;6.580;2023-04-03T16:38:02;3.50;;;3.20;;
60306;SDS011;46155;52.364;6.580;2023-04-03T16:40:28;3.93;;;3.63;;
60306;SDS011;46155;52.364;6.580;2023-04-03T16:42:53;3.83;;;3.53;;
60306;SDS011;46155;52.364;6.580;2023-04-03T16:45:18;4.73;;;3.17;;
60306;SDS011;46155;52.364;6.580;2023-04-03T16:47:44;3.10;;;2.90;;
60306;SDS011;46155;52.364;6.580;2023-04-03T16:50:09;3.50;;;3.30;;
60306;SDS011;46155;52.364;6.580;2023-04-03T16:52:35;4.23;;;2.93;;
60306;SDS011;46155;52.364;6.580;2023-04-03T16:55:01;3.40;;;3.13;;
60306;SDS011;46155;52.364;6.580;2023-04-03T16:57:27;3.90;;;3.50;;
60306;SDS011;46155;52.364;6.580;2023-04-03T16:59:52;4.27;;;3.40;;
60306;SDS011;46155;52.364;6.580;2023-04-03T17:02:19;7.07;;;3.30;;
60306;SDS011;46155;52.364;6.580;2023-04-03T17:04:45;3.70;;;3.17;;
60306;SDS011;46155;52.364;6.580;2023-04-03T17:07:11;6.37;;;4.10;;
60306;SDS011;46155;52.364;6.580;2023-04-03T17:09:36;5.67;;;3.90;;
60306;SDS011;46155;52.364;6.580;2023-04-03T17:12:03;5.07;;;3.57;;
60306;SDS011;46155;52.364;6.580;2023-04-03T17:14:28;6.30;;;3.43;;
60306;SDS011;46155;52.364;6.580;2023-04-03T17:16:53;4.83;;;4.00;;
60306;SDS011;46155;52.364;6.580;2023-04-03T17:19:19;4.97;;;3.63;;
60306;SDS011;46155;52.364;6.580;2023-04-03T17:21:44;4.50;;;3.77;;
60306;SDS011;46155;52.364;6.580;2023-04-03T17:24:10;5.53;;;3.77;;
60306;SDS011;46155;52.364;6.580;2023-04-03T17:26:38;3.97;;;3.53;;
60306;SDS011;46155;52.364;6.580;2023-04-03T17:29:05;4.20;;;3.90;;
60306;SDS011;46155;52.364;6.580;2023-04-03T17:31:31;3.87;;;3.47;;
60306;SDS011;46155;52.364;6.580;2023-04-03T17:33:56;8.37;;;3.83;;
60306;SDS011;46155;52.364;6.580;2023-04-03T17:36:22;4.90;;;3.63;;
60306;SDS011;46155;52.364;6.580;2023-04-03T17:38:49;3.70;;;3.30;;
60306;SDS011;46155;52.364;6.580;2023-04-03T17:41:15;4.33;;;3.33;;
60306;SDS011;46155;52.364;6.580;2023-04-03T17:43:40;8.90;;;4.17;;
60306;SDS011;46155;52.364;6.580;2023-04-03T17:46:07;4.50;;;4.17;;
60306;SDS011;46155;52.364;6.580;2023-04-03T17:48:34;3.53;;;3.33;;
60306;SDS011;46155;52.364;6.580;2023-04-03T17:51:11;6.73;;;4.07;;
60306;SDS011;46155;52.364;6.580;2023-04-03T17:53:39;4.23;;;3.90;;
60306;SDS011;46155;52.364;6.580;2023-04-03T17:56:06;3.97;;;3.57;;
60306;SDS011;46155;52.364;6.580;2023-04-03T17:58:38;4.20;;;3.80;;
60306;SDS011;46155;52.364;6.580;2023-04-03T18:01:08;4.33;;;3.90;;
60306;SDS011;46155;52.364;6.580;2023-04-03T18:03:45;4.20;;;3.83;;
60306;SDS011;46155;52.364;6.580;2023-04-03T18:06:11;4.47;;;3.60;;
60306;SDS011;46155;52.364;6.580;2023-04-03T18:08:40;4.07;;;3.67;;
60306;SDS011;46155;52.364;6.580;2023-04-03T18:11:08;4.13;;;3.83;;
60306;SDS011;46155;52.364;6.580;2023-04-03T18:13:34;3.50;;;3.20;;
60306;SDS011;46155;52.364;6.580;2023-04-03T18:16:02;5.33;;;3.37;;
60306;SDS011;46155;52.364;6.580;2023-04-03T18:18:29;4.97;;;4.00;;
60306;SDS011;46155;52.364;6.580;2023-04-03T18:20:54;4.07;;;3.40;;
60306;SDS011;46155;52.364;6.580;2023-04-03T18:23:19;4.27;;;3.87;;
60306;SDS011;46155;52.364;6.580;2023-04-03T18:25:45;3.63;;;3.43;;
60306;SDS011;46155;52.364;6.580;2023-04-03T18:28:11;4.70;;;3.77;;
60306;SDS011;46155;52.364;6.580;2023-04-03T18:30:37;4.70;;;4.27;;
60306;SDS011;46155;52.364;6.580;2023-04-03T18:33:02;4.30;;;3.80;;
60306;SDS011;46155;52.364;6.580;2023-04-03T18:35:28;4.00;;;3.70;;
60306;SDS011;46155;52.364;6.580;2023-04-03T18:37:53;5.83;;;4.70;;
60306;SDS011;46155;52.364;6.580;2023-04-03T18:40:18;4.97;;;4.37;;
60306;SDS011;46155;52.364;6.580;2023-04-03T18:42:43;4.57;;;4.10;;
60306;SDS011;46155;52.364;6.580;2023-04-03T18:45:10;5.57;;;5.13;;
60306;SDS011;46155;52.364;6.580;2023-04-03T18:47:36;4.53;;;4.13;;
60306;SDS011;46155;52.364;6.580;2023-04-03T18:50:03;9.87;;;5.17;;
60306;SDS011;46155;52.364;6.580;2023-04-03T18:52:29;5.97;;;4.77;;
60306;SDS011;46155;52.364;6.580;2023-04-03T18:54:54;4.93;;;4.57;;
60306;SDS011;46155;52.364;6.580;2023-04-03T18:57:20;6.37;;;5.00;;
60306;SDS011;46155;52.364;6.580;2023-04-03T18:59:46;4.50;;;4.10;;
60306;SDS011;46155;52.364;6.580;2023-04-03T19:02:11;7.87;;;4.47;;
60306;SDS011;46155;52.364;6.580;2023-04-03T19:04:38;9.33;;;5.03;;
60306;SDS011;46155;52.364;6.580;2023-04-03T19:07:04;4.33;;;4.03;;
60306;SDS011;46155;52.364;6.580;2023-04-03T19:09:30;4.87;;;4.47;;
60306;SDS011;46155;52.364;6.580;2023-04-03T19:11:56;6.07;;;4.57;;
60306;SDS011;46155;52.364;6.580;2023-04-03T19:14:22;5.17;;;4.30;;
60306;SDS011;46155;52.364;6.580;2023-04-03T19:16:47;5.50;;;5.03;;